Time;durP1;ratioP1;P1;durP2;ratioP2;P2;SDS_P1;SDS_P2;PMS_P1;PMS_P2;Temp;Humidity;BMP_temperature;BMP_pressure;BME280_temperature;BME280_humidity;BME280_pressure;Samples;Min_cycle;Max_cycle;Signal;HPM_P1;HPM_P2
2023/07/08 00:01:11;;;;;;;4.82;3.30;;;17.00;99.90;;;;;;4975427;28;20465;-74
2023/07/08 00:03:37;;;;;;;8.93;3.20;;;17.00;99.90;;;;;;4975874;28;20113;-73
2023/07/08 00:06:03;;;;;;;6.68;3.20;;;17.00;99.90;;;;;;4958290;28;20561;-72
2023/07/08 00:08:28;;;;;;;8.57;2.97;;;17.00;99.90;;;;;;4975282;28;20478;-72
2023/07/08 00:10:55;;;;;;;6.65;3.30;;;16.90;99.90;;;;;;4974073;28;20047;-73
2023/07/08 00:13:21;;;;;;;3.60;2.67;;;16.80;99.90;;;;;;4975407;28;20089;-73
2023/07/08 00:15:46;;;;;;;5.75;3.17;;;16.80;99.90;;;;;;4958245;28;20046;-71
2023/07/08 00:18:15;;;;;;;8.98;3.70;;;16.80;99.90;;;;;;4975235;28;20259;-73
2023/07/08 00:20:47;;;;;;;6.55;3.78;;;16.80;99.90;;;;;;4975696;28;20038;-73
2023/07/08 00:23:13;;;;;;;7.93;3.70;;;16.80;99.90;;;;;;4973480;28;20049;-73
2023/07/08 00:25:39;;;;;;;6.10;3.55;;;16.70;99.90;;;;;;4973670;28;20403;-72
2023/07/08 00:28:21;;;;;;;6.18;3.47;;;16.70;99.90;;;;;;4989790;28;20169;-72
2023/07/08 00:30:47;;;;;;;4.53;2.88;;;16.70;99.90;;;;;;4975262;28;20426;-72
2023/07/08 00:33:13;;;;;;;7.60;3.13;;;16.80;99.90;;;;;;4974487;28;20136;-72
2023/07/08 00:35:41;;;;;;;7.25;3.50;;;16.80;99.90;;;;;;4975106;28;20124;-70
2023/07/08 00:38:27;;;;;;;6.72;3.20;;;16.80;99.90;;;;;;4974979;28;20129;-74
2023/07/08 00:41:02;;;;;;;6.88;3.38;;;16.80;99.90;;;;;;4957882;28;20436;-72
2023/07/08 00:43:40;;;;;;;5.28;3.15;;;16.90;99.90;;;;;;4975014;28;20046;-72
2023/07/08 00:46:27;;;;;;;8.27;3.10;;;16.80;99.90;;;;;;4975193;28;20486;-73
2023/07/08 00:48:56;;;;;;;6.97;2.60;;;17.00;99.90;;;;;;4974892;28;20534;-74
2023/07/08 00:51:22;;;;;;;7.05;3.08;;;17.30;99.90;;;;;;4975631;28;20680;-72
2023/07/08 00:53:49;;;;;;;6.57;2.80;;;17.40;99.90;;;;;;4976862;28;20125;-74
2023/07/08 00:56:26;;;;;;;4.07;2.42;;;17.60;99.90;;;;;;4977455;28;20227;-72
2023/07/08 00:59:28;;;;;;;3.83;2.63;;;17.60;99.90;;;;;;4976013;28;20482;-73
2023/07/08 01:01:55;;;;;;;4.97;2.30;;;17.70;99.90;;;;;;4951809;28;20105;-73
2023/07/08 01:04:44;;;;;;;6.00;2.38;;;17.70;99.90;;;;;;4977187;28;20050;-72
2023/07/08 01:07:11;;;;;;;5.60;2.72;;;17.90;99.90;;;;;;4975908;28;20057;-72
2023/07/08 01:09:42;;;;;;;5.53;2.50;;;17.80;99.90;;;;;;4976129;28;20416;-72
2023/07/08 01:12:15;;;;;;;3.97;2.10;;;17.80;99.90;;;;;;4976239;28;20719;-72
2023/07/08 01:14:43;;;;;;;4.03;2.10;;;17.90;99.90;;;;;;4976963;28;20043;-73
2023/07/08 01:17:13;;;;;;;5.10;2.10;;;17.90;99.90;;;;;;4960439;28;20070;-74
2023/07/08 01:19:43;;;;;;;4.85;1.98;;;17.90;99.90;;;;;;4993407;28;20125;-71
2023/07/08 01:22:10;;;;;;;3.53;2.17;;;17.90;99.90;;;;;;4977464;28;20082;-75
2023/07/08 01:24:39;;;;;;;3.75;2.17;;;17.90;99.90;;;;;;4976457;28;20493;-72
2023/07/08 01:27:09;;;;;;;4.43;1.88;;;17.90;99.90;;;;;;4976013;28;20082;-74
2023/07/08 01:29:34;;;;;;;4.30;2.40;;;17.90;99.90;;;;;;4977290;28;20312;-72
2023/07/08 01:32:02;;;;;;;5.32;2.47;;;17.90;99.90;;;;;;4978532;28;20060;-72
2023/07/08 01:34:32;;;;;;;6.03;3.08;;;17.90;99.90;;;;;;4979545;28;20133;-73
2023/07/08 01:37:01;;;;;;;8.38;2.65;;;17.90;99.90;;;;;;4994960;28;20050;-73
2023/07/08 01:39:28;;;;;;;6.57;2.67;;;17.90;99.90;;;;;;4977806;28;20054;-73
2023/07/08 01:41:56;;;;;;;4.60;2.83;;;17.90;99.90;;;;;;4978395;28;20256;-72
2023/07/08 01:44:34;;;;;;;5.00;2.60;;;17.90;99.90;;;;;;4978407;28;20034;-73
2023/07/08 01:47:13;;;;;;;5.97;3.08;;;17.90;99.90;;;;;;4994797;28;20188;-72
2023/07/08 01:49:41;;;;;;;5.43;2.53;;;17.90;99.90;;;;;;4977982;28;20050;-73
2023/07/08 01:52:08;;;;;;;4.53;2.70;;;18.00;99.90;;;;;;4977188;28;20636;-74
2023/07/08 01:54:34;;;;;;;6.18;2.88;;;18.00;99.90;;;;;;4977316;28;20630;-72
2023/07/08 01:57:01;;;;;;;5.50;2.85;;;18.00;99.90;;;;;;4975836;28;20133;-73
2023/07/08 01:59:27;;;;;;;6.05;3.10;;;18.10;99.90;;;;;;4975810;28;20665;-71
2023/07/08 02:01:56;;;;;;;7.90;3.72;;;18.10;99.90;;;;;;4962277;28;20042;-71
2023/07/08 02:04:23;;;;;;;7.78;3.00;;;18.00;99.90;;;;;;4980199;28;20043;-72
2023/07/08 02:06:54;;;;;;;5.70;2.80;;;18.00;99.90;;;;;;4995599;28;20391;-72
2023/07/08 02:09:20;;;;;;;4.72;2.70;;;18.00;99.90;;;;;;4980236;28;20530;-72
2023/07/08 02:11:46;;;;;;;4.47;2.70;;;18.10;99.90;;;;;;4980269;28;20065;-72
2023/07/08 02:14:11;;;;;;;5.80;2.72;;;18.00;99.90;;;;;;4979812;28;20050;-72
2023/07/08 02:16:37;;;;;;;5.55;3.17;;;18.00;99.90;;;;;;4994563;28;20510;-71
2023/07/08 02:19:03;;;;;;;4.75;2.67;;;17.90;99.90;;;;;;4967587;28;20102;-72
2023/07/08 02:21:30;;;;;;;7.13;2.47;;;17.90;99.90;;;;;;4986479;28;20054;-72
2023/07/08 02:23:57;;;;;;;9.57;2.65;;;18.00;99.90;;;;;;4986579;28;20306;-71
2023/07/08 02:26:23;;;;;;;6.03;3.50;;;18.00;99.90;;;;;;4984055;28;20474;-72
2023/07/08 02:28:49;;;;;;;5.85;2.88;;;18.10;99.90;;;;;;4996761;28;20093;-71
2023/07/08 02:31:15;;;;;;;5.40;2.78;;;18.10;99.90;;;;;;4980506;28;20054;-70
2023/07/08 02:33:40;;;;;;;10.02;2.90;;;18.10;99.90;;;;;;4984305;28;20078;-72
2023/07/08 02:36:06;;;;;;;5.10;3.08;;;18.10;99.90;;;;;;4984264;28;20479;-71
2023/07/08 02:38:32;;;;;;;6.15;2.80;;;18.10;99.90;;;;;;4998737;28;20805;-73
2023/07/08 02:40:58;;;;;;;4.40;2.88;;;18.10;99.90;;;;;;5001456;28;20057;-73
2023/07/08 02:43:24;;;;;;;6.43;2.70;;;18.00;99.90;;;;;;4986890;28;20053;-71
2023/07/08 02:45:50;;;;;;;5.57;2.95;;;18.00;99.90;;;;;;4987316;28;20042;-73
2023/07/08 02:48:18;;;;;;;6.35;2.67;;;18.10;99.90;;;;;;4988675;28;20042;-71
2023/07/08 02:50:43;;;;;;;5.03;3.25;;;18.10;99.90;;;;;;5003233;28;20049;-69
2023/07/08 02:53:09;;;;;;;5.53;3.00;;;18.00;99.90;;;;;;4953939;28;20655;-72
2023/07/08 02:55:35;;;;;;;5.32;3.08;;;18.10;99.90;;;;;;4988548;28;20047;-73
2023/07/08 02:58:00;;;;;;;7.05;3.38;;;17.90;99.90;;;;;;4968750;28;20054;-72
2023/07/08 03:00:26;;;;;;;6.03;3.15;;;17.90;99.90;;;;;;4963826;28;20502;-71
2023/07/08 03:02:52;;;;;;;5.57;3.47;;;17.90;99.90;;;;;;4978601;28;20371;-74
2023/07/08 03:05:18;;;;;;;7.63;3.45;;;17.90;99.90;;;;;;4980572;28;20078;-72
2023/07/08 03:07:43;;;;;;;6.88;3.33;;;17.90;99.90;;;;;;4979336;28;20077;-72
2023/07/08 03:10:09;;;;;;;7.45;2.95;;;17.90;99.90;;;;;;4995461;28;20089;-73
2023/07/08 03:12:35;;;;;;;5.53;2.67;;;17.90;99.90;;;;;;4981063;28;20053;-73
2023/07/08 03:15:01;;;;;;;4.95;2.55;;;17.90;99.90;;;;;;4999891;28;20058;-72
2023/07/08 03:17:27;;;;;;;8.10;3.10;;;17.90;99.90;;;;;;4999634;28;20042;-71
2023/07/08 03:19:52;;;;;;;5.57;3.20;;;17.90;99.90;;;;;;4984496;28;20053;-73
2023/07/08 03:22:18;;;;;;;8.23;3.17;;;17.90;99.90;;;;;;4999859;28;20133;-72
2023/07/08 03:24:46;;;;;;;6.05;3.00;;;17.90;99.90;;;;;;4967521;28;20053;-73
2023/07/08 03:27:14;;;;;;;6.13;2.90;;;17.90;99.90;;;;;;4984995;28;20050;-74
2023/07/08 03:29:40;;;;;;;6.55;2.95;;;17.80;99.90;;;;;;4981228;28;20045;-73
2023/07/08 03:32:09;;;;;;;5.32;2.85;;;17.70;99.90;;;;;;4980203;28;20604;-71
2023/07/08 03:34:35;;;;;;;4.85;3.05;;;17.70;99.90;;;;;;4979894;28;20052;-72
2023/07/08 03:37:01;;;;;;;4.15;2.63;;;17.60;99.90;;;;;;4980282;28;20034;-72
2023/07/08 03:39:26;;;;;;;4.75;3.05;;;17.60;99.90;;;;;;4980561;28;20058;-72
2023/07/08 03:41:52;;;;;;;4.75;3.22;;;17.60;99.90;;;;;;4980761;28;20061;-72
2023/07/08 03:44:19;;;;;;;3.83;2.72;;;17.60;99.90;;;;;;4978727;28;20588;-73
2023/07/08 03:46:46;;;;;;;4.55;3.10;;;17.50;99.90;;;;;;4979410;28;20137;-72
2023/07/08 03:49:12;;;;;;;6.07;3.47;;;17.50;99.90;;;;;;4994743;28;20050;-72
2023/07/08 03:51:40;;;;;;;6.45;3.90;;;17.40;99.90;;;;;;4977894;28;20069;-73
2023/07/08 03:54:11;;;;;;;7.63;3.85;;;17.30;99.90;;;;;;4978298;28;20042;-74
2023/07/08 03:56:36;;;;;;;8.95;3.95;;;17.20;99.90;;;;;;4978741;28;20073;-70
2023/07/08 03:59:02;;;;;;;6.90;4.03;;;17.20;99.90;;;;;;4977667;28;20096;-71
2023/07/08 04:01:28;;;;;;;5.35;4.03;;;17.10;99.90;;;;;;4978158;28;20073;-73
2023/07/08 04:03:56;;;;;;;5.45;3.85;;;17.00;99.90;;;;;;4961229;28;20054;-70
2023/07/08 04:06:21;;;;;;;6.38;3.63;;;16.90;99.90;;;;;;4977283;28;20126;-72
2023/07/08 04:08:48;;;;;;;6.95;3.50;;;16.90;99.90;;;;;;4979262;28;20153;-70
2023/07/08 04:11:16;;;;;;;8.68;4.90;;;16.90;99.90;;;;;;4992705;28;20679;-73
2023/07/08 04:13:42;;;;;;;5.18;3.58;;;16.90;99.90;;;;;;4993457;28;20754;-71
2023/07/08 04:16:13;;;;;;;6.65;4.45;;;16.90;99.90;;;;;;4979131;28;20031;-71
2023/07/08 04:18:39;;;;;;;6.28;4.40;;;16.80;99.90;;;;;;4995698;28;20441;-73
2023/07/08 04:21:06;;;;;;;5.85;4.00;;;16.80;99.90;;;;;;4996800;28;20085;-72
2023/07/08 04:23:32;;;;;;;6.68;4.60;;;16.80;99.90;;;;;;4995808;28;20050;-72
2023/07/08 04:25:58;;;;;;;4.53;3.60;;;16.80;99.90;;;;;;4979689;28;20054;-73
2023/07/08 04:28:24;;;;;;;4.68;3.72;;;16.80;99.90;;;;;;4979986;28;20142;-72
2023/07/08 04:30:50;;;;;;;11.07;4.65;;;16.80;99.90;;;;;;4981463;28;20141;-72
2023/07/08 04:33:16;;;;;;;10.15;4.18;;;16.80;99.90;;;;;;4979208;28;20286;-71
2023/07/08 04:35:43;;;;;;;7.03;4.32;;;16.90;99.90;;;;;;4993896;28;20042;-74
2023/07/08 04:38:21;;;;;;;5.97;4.03;;;16.90;99.90;;;;;;4977197;28;20102;-72
2023/07/08 04:40:47;;;;;;;5.07;4.00;;;17.00;99.90;;;;;;4976743;28;20046;-73
2023/07/08 04:43:14;;;;;;;7.95;4.10;;;17.00;99.90;;;;;;4978280;28;20042;-72
2023/07/08 04:45:42;;;;;;;5.75;3.83;;;17.10;99.90;;;;;;4976612;28;20049;-74
2023/07/08 04:48:13;;;;;;;6.28;3.95;;;17.10;99.90;;;;;;4979363;28;20133;-71
2023/07/08 04:50:43;;;;;;;7.00;3.95;;;17.20;99.90;;;;;;4979310;28;20061;-73
2023/07/08 04:53:10;;;;;;;5.47;3.88;;;17.20;99.90;;;;;;4978471;28;20113;-72
2023/07/08 04:55:40;;;;;;;7.50;3.78;;;17.20;99.90;;;;;;4977698;28;20052;-71
2023/07/08 04:58:06;;;;;;;6.38;3.53;;;17.30;99.90;;;;;;4978168;28;20053;-71
2023/07/08 05:00:32;;;;;;;7.20;3.90;;;17.30;99.90;;;;;;4993277;28;20054;-71
2023/07/08 05:02:57;;;;;;;6.65;3.65;;;17.40;99.90;;;;;;4959880;28;20062;-71
2023/07/08 05:05:23;;;;;;;5.82;3.90;;;17.40;99.90;;;;;;4977766;28;20046;-72
2023/07/08 05:07:49;;;;;;;3.97;3.50;;;17.40;99.90;;;;;;4977070;28;20046;-71
2023/07/08 05:10:15;;;;;;;6.40;3.67;;;17.50;99.90;;;;;;4975748;28;20053;-71
2023/07/08 05:12:42;;;;;;;5.55;3.75;;;17.50;99.90;;;;;;4975685;28;20046;-72
2023/07/08 05:15:09;;;;;;;5.75;3.83;;;17.60;99.90;;;;;;4992060;28;20490;-73
2023/07/08 05:17:36;;;;;;;5.70;4.18;;;17.60;99.90;;;;;;4976229;28;20242;-72
2023/07/08 05:20:03;;;;;;;6.25;3.80;;;17.60;99.90;;;;;;4991755;28;20038;-72
2023/07/08 05:22:31;;;;;;;4.35;3.13;;;17.70;99.90;;;;;;4975379;28;20185;-72
2023/07/08 05:24:57;;;;;;;4.90;3.10;;;17.80;99.90;;;;;;4991690;28;20592;-73
2023/07/08 05:27:24;;;;;;;8.52;3.63;;;17.80;99.90;;;;;;4977047;28;20406;-75
2023/07/08 05:29:50;;;;;;;5.53;3.60;;;18.00;99.90;;;;;;4959808;28;20100;-73
2023/07/08 05:32:16;;;;;;;6.30;3.30;;;18.20;99.90;;;;;;4991647;28;20053;-71
2023/07/08 05:34:43;;;;;;;7.28;3.40;;;18.50;99.90;;;;;;4975209;28;20042;-72
2023/07/08 05:37:10;;;;;;;7.32;3.15;;;18.80;99.90;;;;;;4995219;28;20489;-71
2023/07/08 05:39:35;;;;;;;3.88;2.70;;;19.10;99.90;;;;;;4980783;28;20061;-72
2023/07/08 05:42:01;;;;;;;7.10;2.95;;;19.30;85.60;;;;;;4980485;28;20050;-71
2023/07/08 05:44:26;;;;;;;5.47;3.33;;;19.40;1.00;;;;;;4996359;28;20062;-72
2023/07/08 05:46:52;;;;;;;6.05;3.28;;;19.50;1.00;;;;;;4980752;28;20042;-72
2023/07/08 05:49:18;;;;;;;4.65;2.83;;;19.60;1.00;;;;;;4979228;28;20057;-71
2023/07/08 05:51:44;;;;;;;5.43;2.90;;;19.70;1.00;;;;;;4978565;28;20042;-74
2023/07/08 05:54:10;;;;;;;4.70;2.83;;;19.80;1.00;;;;;;4980470;28;20065;-71
2023/07/08 05:56:36;;;;;;;4.28;2.65;;;19.90;1.00;;;;;;4979287;28;20164;-71
2023/07/08 05:59:03;;;;;;;4.88;2.60;;;19.90;1.00;;;;;;4978864;28;20092;-73
2023/07/08 06:01:29;;;;;;;5.35;3.03;;;20.10;1.00;;;;;;4980115;28;20605;-72
2023/07/08 06:03:57;;;;;;;3.85;2.50;;;20.10;99.90;;;;;;4979965;28;20046;-74
2023/07/08 06:06:24;;;;;;;5.57;2.92;;;20.10;99.90;;;;;;4979880;28;20783;-72
2023/07/08 06:08:50;;;;;;;4.88;2.47;;;20.20;99.90;;;;;;4978564;28;20042;-72
2023/07/08 06:11:16;;;;;;;5.50;2.58;;;20.30;99.90;;;;;;4978771;28;20592;-72
2023/07/08 06:13:42;;;;;;;4.05;2.33;;;20.40;99.90;;;;;;4980301;28;20616;-72
2023/07/08 06:16:08;;;;;;;4.05;2.30;;;20.50;99.90;;;;;;4962210;28;20038;-72
2023/07/08 06:18:34;;;;;;;4.70;2.22;;;20.60;99.90;;;;;;4994458;28;20612;-73
2023/07/08 06:21:01;;;;;;;3.92;2.42;;;20.80;99.90;;;;;;4994682;28;20031;-72
2023/07/08 06:23:27;;;;;;;4.13;2.13;;;20.90;99.90;;;;;;4979855;28;20347;-73
2023/07/08 06:25:54;;;;;;;3.45;2.30;;;20.90;99.90;;;;;;4980121;28;20112;-71
2023/07/08 06:28:20;;;;;;;4.13;2.60;;;20.90;99.90;;;;;;4980465;28;20441;-73
2023/07/08 06:30:46;;;;;;;6.45;2.65;;;20.90;99.90;;;;;;4978082;28;20034;-71
2023/07/08 06:33:11;;;;;;;4.43;2.33;;;21.00;99.90;;;;;;4979772;28;20053;-71
2023/07/08 06:35:38;;;;;;;8.02;2.50;;;21.00;99.90;;;;;;4978750;28;20290;-74
2023/07/08 06:38:04;;;;;;;4.25;2.05;;;21.20;99.90;;;;;;4983033;28;20535;-72
2023/07/08 06:40:30;;;;;;;4.85;2.25;;;21.40;99.90;;;;;;4985621;28;20058;-72
2023/07/08 06:42:56;;;;;;;4.65;2.10;;;21.40;99.90;;;;;;4984542;28;20053;-72
2023/07/08 06:45:22;;;;;;;6.05;2.00;;;21.60;99.90;;;;;;4983413;28;20390;-72
2023/07/08 06:47:48;;;;;;;4.13;1.95;;;21.80;99.90;;;;;;4997532;28;20130;-73
2023/07/08 06:50:13;;;;;;;3.92;1.60;;;21.90;99.90;;;;;;4981782;28;20034;-71
2023/07/08 06:52:39;;;;;;;5.40;1.70;;;22.00;99.90;;;;;;4981952;28;20053;-71
2023/07/08 06:55:07;;;;;;;6.05;1.95;;;22.10;99.90;;;;;;4996876;28;20038;-73
2023/07/08 06:57:35;;;;;;;4.72;1.67;;;22.20;99.90;;;;;;4980246;28;20124;-74
2023/07/08 07:00:00;;;;;;;3.47;1.90;;;22.40;99.90;;;;;;4980444;28;20042;-74
2023/07/08 07:02:27;;;;;;;5.78;1.83;;;22.60;99.90;;;;;;4979568;28;20053;-72
2023/07/08 07:04:52;;;;;;;4.78;2.20;;;22.80;99.90;;;;;;4994522;28;20081;-72
2023/07/08 07:07:18;;;;;;;2.63;1.40;;;22.90;99.90;;;;;;4979672;28;20050;-72
2023/07/08 07:09:44;;;;;;;4.30;1.27;;;23.10;99.90;;;;;;4994853;28;20046;-74
2023/07/08 07:12:10;;;;;;;2.90;1.33;;;23.10;99.90;;;;;;4981032;28;20397;-73
2023/07/08 07:14:35;;;;;;;2.97;1.27;;;23.30;99.90;;;;;;4997213;28;20475;-70
2023/07/08 07:17:01;;;;;;;2.38;1.30;;;23.40;99.90;;;;;;4997474;28;20042;-73
2023/07/08 07:19:27;;;;;;;4.18;1.20;;;23.50;99.90;;;;;;4981240;28;20571;-71
2023/07/08 07:21:53;;;;;;;2.67;1.13;;;23.60;99.90;;;;;;4981982;28;20053;-72
2023/07/08 07:24:19;;;;;;;3.20;1.20;;;23.70;99.90;;;;;;4978372;28;20076;-72
2023/07/08 07:26:45;;;;;;;4.72;1.10;;;23.90;99.90;;;;;;4978299;28;20181;-72
2023/07/08 07:29:10;;;;;;;4.70;1.55;;;23.90;99.90;;;;;;4979705;28;20038;-73
2023/07/08 07:31:39;;;;;;;3.00;0.98;;;23.90;99.90;;;;;;4979059;28;20525;-72
2023/07/08 07:34:05;;;;;;;3.58;1.33;;;24.00;99.90;;;;;;4979121;28;20053;-73
2023/07/08 07:36:31;;;;;;;2.67;1.42;;;24.10;99.90;;;;;;4994178;28;20046;-73
2023/07/08 07:38:56;;;;;;;2.25;1.20;;;24.20;99.90;;;;;;4993582;28;20057;-72
2023/07/08 07:41:23;;;;;;;2.65;1.10;;;24.20;99.90;;;;;;4978537;28;20495;-72
2023/07/08 07:43:49;;;;;;;4.30;1.48;;;24.40;99.90;;;;;;4979360;28;20382;-72
2023/07/08 07:46:15;;;;;;;2.35;1.15;;;24.50;99.90;;;;;;4977697;28;20054;-73
2023/07/08 07:48:42;;;;;;;2.40;1.33;;;24.60;99.90;;;;;;4979409;28;20486;-72
2023/07/08 07:51:10;;;;;;;1.65;1.02;;;24.60;99.90;;;;;;4979108;28;20442;-73
2023/07/08 07:53:37;;;;;;;1.63;0.82;;;24.60;99.90;;;;;;4993312;28;20034;-74
2023/07/08 07:56:04;;;;;;;3.42;1.10;;;24.60;99.90;;;;;;4977298;28;20092;-74
2023/07/08 07:58:30;;;;;;;2.75;1.20;;;24.70;99.90;;;;;;4976790;28;20104;-74
2023/07/08 08:00:57;;;;;;;2.95;1.13;;;24.70;99.90;;;;;;4993363;28;20046;-74
2023/07/08 08:03:23;;;;;;;2.60;0.93;;;25.00;99.90;;;;;;4993345;28;20046;-76
2023/07/08 08:05:49;;;;;;;3.30;1.35;;;24.90;99.90;;;;;;4977145;28;20050;-72
2023/07/08 08:08:15;;;;;;;3.38;1.35;;;24.90;99.90;;;;;;4978771;28;20073;-72
2023/07/08 08:10:43;;;;;;;2.53;1.20;;;24.90;99.90;;;;;;4978950;28;20077;-73
2023/07/08 08:13:09;;;;;;;1.63;0.90;;;24.90;99.90;;;;;;4992984;28;20047;-73
2023/07/08 08:15:35;;;;;;;2.00;0.70;;;24.90;99.90;;;;;;4977082;28;20081;-72
2023/07/08 08:18:01;;;;;;;2.78;1.23;;;25.00;99.90;;;;;;4961072;28;20572;-73
2023/07/08 08:20:28;;;;;;;2.80;1.25;;;25.00;99.90;;;;;;4993328;28;20066;-73
2023/07/08 08:22:54;;;;;;;3.72;1.08;;;25.00;99.90;;;;;;4993535;28;20042;-73
2023/07/08 08:25:22;;;;;;;2.60;1.05;;;25.10;99.90;;;;;;4978603;28;20498;-73
2023/07/08 08:27:47;;;;;;;3.72;1.45;;;25.20;99.90;;;;;;4961060;28;20058;-73
2023/07/08 08:30:13;;;;;;;3.80;0.93;;;25.20;99.90;;;;;;4976742;28;20105;-73
2023/07/08 08:32:39;;;;;;;2.63;1.23;;;25.10;99.90;;;;;;4977868;28;20042;-73
2023/07/08 08:35:06;;;;;;;2.13;1.13;;;25.30;99.90;;;;;;4960188;28;20042;-74
2023/07/08 08:37:31;;;;;;;2.53;1.00;;;25.30;99.90;;;;;;4976751;28;20112;-74
2023/07/08 08:39:57;;;;;;;2.13;1.05;;;25.50;99.90;;;;;;4978056;28;20145;-74
2023/07/08 08:42:48;;;;;;;2.65;1.42;;;25.40;99.90;;;;;;4992580;28;20741;-76
2023/07/08 08:45:18;;;;;;;3.05;1.50;;;25.30;99.90;;;;;;4965297;28;20681;-75
2023/07/08 08:47:47;;;;;;;4.25;1.48;;;25.60;99.90;;;;;;4978125;28;20069;-71
2023/07/08 08:50:27;;;;;;;2.13;1.20;;;25.70;99.90;;;;;;4978705;28;20045;-74
2023/07/08 08:52:55;;;;;;;2.88;1.23;;;26.00;99.90;;;;;;4976573;28;20061;-74
2023/07/08 08:55:23;;;;;;;3.65;1.20;;;26.30;99.90;;;;;;4978089;28;20477;-75
2023/07/08 08:58:08;;;;;;;3.25;1.02;;;26.40;99.90;;;;;;4978249;28;20129;-72
2023/07/08 09:00:56;;;;;;;3.40;1.00;;;26.50;99.90;;;;;;4977911;28;20054;-73
2023/07/08 09:03:33;;;;;;;2.97;0.95;;;26.60;99.90;;;;;;4978174;28;20044;-74
2023/07/08 09:06:00;;;;;;;3.53;0.80;;;26.70;99.90;;;;;;4976335;28;20093;-73
2023/07/08 09:08:35;;;;;;;2.22;0.80;;;26.80;99.90;;;;;;4944006;28;20486;-73
2023/07/08 09:11:28;;;;;;;2.20;0.90;;;26.80;96.70;;;;;;4959766;28;20133;-73
2023/07/08 09:13:54;;;;;;;3.60;0.95;;;27.20;96.90;;;;;;4993184;28;20386;-73
2023/07/08 09:16:44;;;;;;;2.33;1.30;;;27.40;81.40;;;;;;4979841;28;20518;-73
2023/07/08 09:19:14;;;;;;;3.28;1.15;;;27.70;67.30;;;;;;4961693;28;20051;-72
2023/07/08 09:21:51;;;;;;;2.55;0.93;;;27.70;57.60;;;;;;4978407;28;20398;-73
2023/07/08 09:24:34;;;;;;;2.95;0.80;;;27.90;56.00;;;;;;4963560;28;20038;-72
2023/07/08 09:27:01;;;;;;;3.17;1.00;;;27.90;36.50;;;;;;4981434;28;20038;-73
2023/07/08 09:29:28;;;;;;;2.30;0.90;;;28.00;29.30;;;;;;4976558;28;20058;-75
2023/07/08 09:31:54;;;;;;;1.73;0.80;;;28.10;9.80;;;;;;4993209;28;20071;-73
2023/07/08 09:34:23;;;;;;;2.42;0.85;;;28.10;24.40;;;;;;4977648;28;20374;-72
2023/07/08 09:36:51;;;;;;;3.53;0.98;;;28.20;27.80;;;;;;4979808;28;20072;-76
2023/07/08 09:39:20;;;;;;;2.15;0.90;;;28.40;5.90;;;;;;4977027;28;20081;-73
2023/07/08 09:41:48;;;;;;;3.33;0.90;;;28.60;17.70;;;;;;4976425;28;20770;-74
2023/07/08 09:44:29;;;;;;;1.95;0.90;;;28.80;1.00;;;;;;4976495;28;20053;-74
2023/07/08 09:46:57;;;;;;;4.63;1.10;;;28.80;1.00;;;;;;4974122;28;20121;-74
2023/07/08 09:49:33;;;;;;;2.28;0.68;;;28.90;1.00;;;;;;4975300;28;20054;-75
2023/07/08 09:52:00;;;;;;;2.20;0.98;;;28.90;1.00;;;;;;4974988;28;20540;-74
2023/07/08 09:54:27;;;;;;;1.60;0.93;;;29.00;1.00;;;;;;4973187;28;20146;-74
2023/07/08 09:57:17;;;;;;;1.60;0.80;;;29.20;1.00;;;;;;4974143;28;20141;-74
2023/07/08 09:59:47;;;;;;;2.17;0.73;;;29.30;1.00;;;;;;4974588;28;20069;-74
2023/07/08 10:02:28;;;;;;;2.65;1.27;;;29.30;1.00;;;;;;4974342;28;20078;-75
2023/07/08 10:04:57;;;;;;;1.70;0.70;;;29.40;1.00;;;;;;4974585;28;20078;-73
2023/07/08 10:07:23;;;;;;;2.03;0.85;;;29.50;1.00;;;;;;4974137;28;20050;-74
2023/07/08 10:09:53;;;;;;;1.40;0.80;;;29.50;1.00;;;;;;4990727;28;20158;-73
2023/07/08 10:12:21;;;;;;;4.93;1.08;;;29.40;1.00;;;;;;4974865;28;20482;-72
2023/07/08 10:14:59;;;;;;;4.18;0.80;;;29.70;1.00;;;;;;4992667;28;20049;-74
2023/07/08 10:17:25;;;;;;;3.28;0.88;;;29.70;1.00;;;;;;4978100;28;20042;-71
2023/07/08 10:19:51;;;;;;;2.70;0.80;;;29.60;1.00;;;;;;4978418;28;20042;-76
2023/07/08 10:22:38;;;;;;;6.90;0.98;;;29.70;1.00;;;;;;4978165;28;20620;-73
2023/07/08 10:25:09;;;;;;;2.65;0.90;;;29.60;1.00;;;;;;4977870;28;20104;-76
2023/07/08 10:27:49;;;;;;;1.98;0.80;;;29.60;1.00;;;;;;4995046;28;20042;-73
2023/07/08 10:30:23;;;;;;;2.10;0.98;;;29.60;1.00;;;;;;4987910;28;20031;-74
2023/07/08 10:33:17;;;;;;;2.65;0.88;;;29.80;1.00;;;;;;4994330;28;20046;-73
2023/07/08 10:35:56;;;;;;;3.40;0.93;;;29.90;1.00;;;;;;4996840;28;20054;-73
2023/07/08 10:38:22;;;;;;;3.97;0.90;;;30.10;1.00;;;;;;5006480;28;20046;-75
2023/07/08 10:41:03;;;;;;;3.38;1.00;;;30.00;1.00;;;;;;4983067;28;20137;-74
2023/07/08 10:43:32;;;;;;;2.40;1.13;;;30.30;1.00;;;;;;4980596;28;20054;-76
2023/07/08 10:46:22;;;;;;;2.03;0.90;;;30.40;1.00;;;;;;4987870;28;20594;-74
2023/07/08 10:49:09;;;;;;;3.35;0.88;;;30.30;1.00;;;;;;4986621;28;20116;-75
2023/07/08 10:51:43;;;;;;;2.65;1.00;;;30.50;1.00;;;;;;4960899;28;20093;-72
2023/07/08 10:54:24;;;;;;;4.57;0.80;;;30.60;1.00;;;;;;4977388;28;20055;-75
2023/07/08 10:57:10;;;;;;;3.85;0.77;;;30.60;1.00;;;;;;4978482;28;20457;-73
2023/07/08 11:00:11;;;;;;;2.35;1.00;;;30.60;1.00;;;;;;4980118;28;20042;-76
2023/07/08 11:02:53;;;;;;;3.55;0.93;;;30.50;1.00;;;;;;4979981;28;20049;-73
2023/07/08 11:05:45;;;;;;;2.67;1.30;;;30.40;1.00;;;;;;4986399;28;20046;-73
2023/07/08 11:08:11;;;;;;;3.53;0.80;;;30.30;1.00;;;;;;4988446;28;20527;-73
2023/07/08 11:10:43;;;;;;;2.88;0.80;;;30.70;1.00;;;;;;4990179;28;20369;-74
2023/07/08 11:13:18;;;;;;;1.42;0.70;;;30.70;1.00;;;;;;4986412;28;20042;-73
2023/07/08 11:15:46;;;;;;;1.50;0.90;;;30.90;1.00;;;;;;4985833;28;20053;-74
2023/07/08 11:18:12;;;;;;;2.85;0.90;;;31.10;1.00;;;;;;4979712;28;20246;-76
2023/07/08 11:20:47;;;;;;;1.70;1.02;;;30.90;1.00;;;;;;4993709;28;20045;-75
2023/07/08 11:23:24;;;;;;;2.33;0.95;;;30.80;1.00;;;;;;4980362;28;20047;-73
2023/07/08 11:25:54;;;;;;;3.08;1.00;;;31.00;1.00;;;;;;4978221;28;20441;-74
2023/07/08 11:28:23;;;;;;;3.00;0.85;;;30.90;1.00;;;;;;4976017;28;20393;-75
2023/07/08 11:30:51;;;;;;;3.53;1.00;;;31.00;1.00;;;;;;4976344;28;20069;-75
2023/07/08 11:33:22;;;;;;;3.78;1.15;;;31.20;1.00;;;;;;4975276;28;20093;-74
2023/07/08 11:35:56;;;;;;;4.40;1.10;;;31.30;99.90;;;;;;4977271;28;20517;-75
2023/07/08 11:38:22;;;;;;;1.90;0.90;;;31.10;1.00;;;;;;4976348;28;20371;-74
2023/07/08 11:41:02;;;;;;;1.80;0.80;;;31.20;99.90;;;;;;4991135;28;20335;-74
2023/07/08 11:43:42;;;;;;;3.10;0.90;;;31.20;99.90;;;;;;4975859;28;20085;-73
2023/07/08 11:46:17;;;;;;;3.35;1.02;;;31.00;1.00;;;;;;4991140;28;20536;-75
2023/07/08 11:48:47;;;;;;;3.72;0.85;;;30.90;99.90;;;;;;4975756;28;20367;-73
2023/07/08 11:51:30;;;;;;;3.05;0.93;;;30.80;1.00;;;;;;4975343;28;20553;-75
2023/07/08 11:54:01;;;;;;;2.78;0.90;;;30.90;1.00;;;;;;4974179;28;20565;-73
2023/07/08 11:56:27;;;;;;;1.48;0.82;;;30.90;1.00;;;;;;4975848;28;20054;-73
2023/07/08 11:59:19;;;;;;;3.53;0.93;;;31.00;1.00;;;;;;4974391;28;20552;-74
2023/07/08 12:01:45;;;;;;;;;;;31.10;1.00;;;;;;4976302;28;20513;-75
2023/07/08 12:04:23;;;;;;;3.67;1.05;;;31.40;1.00;;;;;;4975863;28;19928;-74
2023/07/08 12:06:58;;;;;;;3.58;0.90;;;31.40;1.00;;;;;;4974297;28;20042;-73
2023/07/08 12:09:35;;;;;;;2.10;1.08;;;31.60;1.00;;;;;;4975302;28;20047;-74
2023/07/08 12:12:05;;;;;;;2.20;1.10;;;31.50;99.90;;;;;;4974568;28;20053;-73
2023/07/08 12:14:31;;;;;;;2.92;0.88;;;31.60;99.90;;;;;;4974449;28;20046;-72
2023/07/08 12:16:58;;;;;;;2.80;1.00;;;31.60;99.90;;;;;;4973622;28;20116;-74
2023/07/08 12:19:28;;;;;;;1.70;1.00;;;31.90;99.90;;;;;;4974672;28;20046;-76
2023/07/08 12:21:55;;;;;;;3.25;1.15;;;32.00;99.90;;;;;;4974584;28;20035;-76
2023/07/08 12:24:26;;;;;;;2.22;1.02;;;31.90;99.90;;;;;;4990108;28;20484;-74
2023/07/08 12:26:52;;;;;;;1.88;1.10;;;32.00;99.90;;;;;;4973708;28;20177;-73
2023/07/08 12:29:18;;;;;;;5.60;1.00;;;32.10;99.90;;;;;;4957235;28;20109;-74
2023/07/08 12:31:44;;;;;;;2.22;0.90;;;32.20;99.90;;;;;;4958303;28;20039;-73
2023/07/08 12:34:16;;;;;;;3.05;0.90;;;32.40;99.90;;;;;;4975442;28;20158;-73
2023/07/08 12:36:44;;;;;;;2.58;1.00;;;32.50;99.90;;;;;;4974430;28;20839;-73
2023/07/08 12:39:16;;;;;;;2.15;1.05;;;32.40;99.90;;;;;;4957540;28;20066;-73
2023/07/08 12:41:43;;;;;;;2.22;1.05;;;32.00;99.90;;;;;;4958047;28;20479;-74
2023/07/08 12:44:20;;;;;;;4.15;1.20;;;32.20;99.90;;;;;;4974275;28;20126;-74
2023/07/08 12:46:47;;;;;;;2.72;0.85;;;32.20;99.90;;;;;;4974256;28;20046;-74
2023/07/08 12:49:14;;;;;;;3.10;1.30;;;32.20;99.90;;;;;;4974570;28;20042;-74
2023/07/08 12:51:43;;;;;;;3.17;1.30;;;32.00;99.90;;;;;;4977732;28;20385;-74
2023/07/08 12:54:10;;;;;;;3.03;1.30;;;31.80;99.90;;;;;;4989939;28;20042;-74
2023/07/08 12:56:36;;;;;;;2.88;1.25;;;31.90;99.90;;;;;;4974870;28;20053;-74
2023/07/08 12:59:01;;;;;;;5.80;1.30;;;32.10;99.90;;;;;;4957069;28;20124;-72